• Join FlightAware (Why Join?)
  • Login
  • US Flag 
10:32AM EST


 

Airport Tracker/Info


-or-


 

Live Flight TrackerFlight Track Log ✈ SWA378 ✈ 17-Apr-2013 ✈ KBWI - KALB

Flight Track Log - Related Links

Times and Time Zones

All times are in EDT time to prevent confusion due to time zone crossing. See the SWA378 flight status page for this flight to view local times or setup timezone preferences in your user account.

Time Position Orientation Groundspeed Altitude Reporting Facility
EDT Latitude Longitude Course Direction KTS MPH feet Rate Location/Type
10:23PM 39.1500 -76.6500 115° Southeast 169 194 1,700  Level Potomac TRACON
10:25PM 39.0956 -76.5008 115° Southeast 215 247 9,000 3,120 Climbing Washington Center
10:26PM 39.1169 -76.3914 76° East 246 283 11,600 3,060 Climbing Washington Center
10:27PM 39.1428 -76.2606 76° East 315 362 15,200 3,060 Climbing Washington Center
10:28PM 39.1642 -76.1378 77° East 348 400 17,800 2,520 Climbing Washington Center
10:29PM 39.1794 -75.9906 82° East 388 447 20,300 2,760 Climbing Washington Center
10:30PM 39.2403 -75.8622 59° Northeast 408 470 23,400 3,000 Climbing Washington Center
10:31PM 39.3197 -75.7497 48° Northeast 403 464 26,400 2,640 Climbing Washington Center
10:32PM 39.4011 -75.6372 47° Northeast 408 470 28,700 1,260 Climbing Washington Center
10:33PM 39.4864 -75.5189 47° Northeast 429 494 29,000 120 Climbing Washington Center
10:34PM 39.5717 -75.3950 48° Northeast 447 514 29,000  Level Washington Center
10:37PM 39.7833 -75.1147 45° Northeast 476 548 29,000  Level New York Center
10:37PM 39.8794 -74.9989 43° Northeast 465 535 29,000  Level New York Center
10:39PM 39.9336 -74.8616 45° Northeast  Level FlightAware Approximate
10:39PM 40.0644 -74.7714 45° Northeast 461 531 29,000  Level New York Center
10:40PM 40.1689 -74.6444 43° Northeast 456 525 29,000  Level New York Center
10:41PM 40.2833 -74.5856 21° North 449 517 29,000  Level New York Center
10:43PM 40.4033 -74.5458 14° North 438 504 29,000  Level New York Center
10:45PM 40.6442 -74.4669 14° North 442 509 29,000 -180 Level Boston Center
10:46PM 40.7614 -74.4322 13° North 432 497 28,500 -840 Descending Boston Center
10:47PM 40.8747 -74.3944 14° North 421 484 27,400 -1,020 Descending Boston Center
10:48PM 40.9794 -74.3619 13° North 421 484 26,500 -720 Descending Boston Center
10:49PM 41.0883 -74.3267 14° North 410 472 26,000 -300 Descending Boston Center
10:50PM 41.1994 -74.2911 14° North 405 466 26,000  Level Boston Center
10:51PM 41.3147 -74.2503 15° North 399 459 26,000 -360 Level Boston Center
10:52PM 41.4239 -74.1953 21° North 399 459 25,300 -1,500 Descending Boston Center
10:53PM 41.5150 -74.1008 38° Northeast 406 467 23,000 -2,220 Descending Boston Center
10:54PM 41.5956 -74.0083 41° Northeast 418 481 20,900 -2,160 Descending Boston Center
10:55PM 41.6781 -73.9103 42° Northeast 405 466 18,800 -1,980 Descending Boston Center
10:56PM 41.7689 -73.8039 41° Northeast 391 450 17,000 -1,500 Descending Boston Center
10:57PM 41.8408 -73.7219 40° Northeast 385 443 15,900 -1,860 Descending Boston Center
10:57PM 41.8958 -73.6617 39° Northeast 387 445 14,100 -3,060 Descending Boston Center
10:58PM 41.9417 -73.6514 North 362 417 12,900 -2,400 Descending Boston Center
10:58PM 42.0103 -73.6694 349° North 347 399 11,500 -1,800 Descending Boston Center
10:59PM 42.0289 -73.6728 352° North 340 391 11,100 -420 Descending Boston Center
10:59PM 42.0997 -73.6881 351° North 319 367 11,100 -120 Level Boston Center
11:00PM 42.1164 -73.6939 345° North 335 386 11,000 -120 Descending Boston Center
11:00PM 42.1850 -73.7036 354° North 303 349 11,000  Level Boston Center
11:01PM 42.2119 -73.7100 350° North 324 373 11,000 -1,380 Level Boston Center
11:01PM 42.2597 -73.7219 350° North 274 315 9,600 -1,800 Descending Boston Center
11:02PM 42.3347 -73.7347 353° North 268 308 8,000 -1,800 Descending Boston Center
11:03PM 42.4094 -73.7506 351° North 270 311 6,100 -1,920 Descending Boston Center
11:04PM 42.4864 -73.7689 350° North 278 320 4,200 -1,800 Descending Boston Center
11:05PM 42.5592 -73.7847 351° North 268 308 2,500 -1,080 Descending Boston Center
11:06PM 42.6236 -73.7972 352° North 237 273 2,100 -480 Descending Boston Center
11:07PM 42.6778 -73.8042 355° North 138 159 1,500 -660 Descending Boston Center
11:08PM 42.7111 -73.8078 355° North 114 131 800 -720 Descending Boston Center